createdAt,value
2023-05-20T00:00:17.335Z,63.17
2023-05-20T00:03:04.415Z,63.34
2023-05-20T00:05:51.520Z,63.42
2023-05-20T00:08:31.307Z,63.35
2023-05-20T00:11:18.291Z,63.48
2023-05-20T00:14:05.309Z,63.72
2023-05-20T00:16:45.805Z,63.90
2023-05-20T00:19:32.279Z,63.91
2023-05-20T00:22:12.660Z,64.21
2023-05-20T00:24:59.328Z,64.38
2023-05-20T00:27:47.310Z,64.86
2023-05-20T00:30:27.268Z,65.33
2023-05-20T00:33:08.083Z,65.68
2023-05-20T00:35:55.298Z,65.74
2023-05-20T00:38:42.281Z,66.37
2023-05-20T00:41:29.258Z,66.37
2023-05-20T00:44:10.220Z,66.43
2023-05-20T00:46:58.253Z,66.27
2023-05-20T00:49:45.889Z,66.65
2023-05-20T00:52:35.289Z,66.45
2023-05-20T00:55:22.275Z,66.71
2023-05-20T00:58:02.317Z,66.52
2023-05-20T01:00:49.201Z,66.62
2023-05-20T01:03:29.453Z,66.75
2023-05-20T01:06:16.224Z,66.43
2023-05-20T01:09:03.257Z,66.43
2023-05-20T01:11:57.236Z,66.96
2023-05-20T01:14:50.256Z,66.82
2023-05-20T01:17:33.235Z,67.28
2023-05-20T01:20:22.247Z,67.39
2023-05-20T01:23:03.414Z,67.13
2023-05-20T01:25:50.176Z,67.63
2023-05-20T01:28:30.637Z,67.95
2023-05-20T01:31:20.239Z,68.00
2023-05-20T01:34:08.179Z,68.76
2023-05-20T01:36:56.197Z,68.61
2023-05-20T01:39:41.806Z,68.61
2023-05-20T01:42:29.192Z,69.17
2023-05-20T01:45:10.056Z,69.37
2023-05-20T01:47:59.223Z,69.42
2023-05-20T01:50:40.111Z,69.46
2023-05-20T01:53:27.133Z,69.38
2023-05-20T01:56:07.519Z,69.90
2023-05-20T01:58:54.152Z,69.57
2023-05-20T02:01:41.202Z,69.37
2023-05-20T02:04:22.765Z,69.30
2023-05-20T02:07:09.149Z,69.74
2023-05-20T02:09:49.293Z,69.86
2023-05-20T02:12:36.141Z,70.08
2023-05-20T02:15:16.373Z,70.35
2023-05-20T02:18:04.215Z,70.28
2023-05-20T02:20:44.231Z,70.64
2023-05-20T02:23:31.124Z,70.65
2023-05-20T02:26:18.142Z,70.74
2023-05-20T02:28:58.530Z,70.63
2023-05-20T02:31:45.171Z,70.61
2023-05-20T02:34:26.343Z,70.38
2023-05-20T02:37:13.117Z,70.22
2023-05-20T02:39:53.509Z,70.36
2023-05-20T02:42:40.129Z,70.01
2023-05-20T02:45:27.089Z,70.16
2023-05-20T02:48:21.130Z,70.14
2023-05-20T02:51:08.107Z,69.83
2023-05-20T02:53:48.189Z,69.98
2023-05-20T02:56:35.125Z,69.67
2023-05-20T02:59:22.111Z,69.80
2023-05-20T03:02:03.311Z,70.00
2023-05-20T03:04:50.118Z,70.49
2023-05-20T03:07:30.500Z,70.68
2023-05-20T03:10:21.089Z,71.16
2023-05-20T03:13:08.092Z,70.91
2023-05-20T03:15:56.135Z,71.45
2023-05-20T03:18:36.437Z,71.61
2023-05-20T03:21:23.100Z,71.07
2023-05-20T03:24:03.557Z,71.14
2023-05-20T03:26:50.112Z,70.87
2023-05-20T03:29:38.064Z,70.97
2023-05-20T03:32:18.217Z,70.62
2023-05-20T03:35:07.082Z,69.59
2023-05-20T03:37:47.101Z,69.52
2023-05-20T03:40:36.106Z,69.90
2023-05-20T03:43:16.257Z,68.99
2023-05-20T03:46:10.095Z,68.92
2023-05-20T03:49:04.022Z,68.83
2023-05-20T03:51:51.033Z,68.83
2023-05-20T03:54:31.671Z,69.61
2023-05-20T03:57:19.051Z,70.23
2023-05-20T04:00:06.022Z,70.79
2023-05-20T04:03:03.178Z,71.45
2023-05-20T04:05:43.124Z,71.97
2023-05-20T04:08:33.983Z,72.83
2023-05-20T04:11:14.074Z,74.35
2023-05-20T04:14:01.017Z,76.01
2023-05-20T04:16:41.201Z,78.19
2023-05-20T04:19:28.082Z,78.71
2023-05-20T04:22:08.060Z,80.82
2023-05-20T04:24:54.996Z,83.50
2023-05-20T04:27:35.168Z,84.37
2023-05-20T04:30:25.031Z,83.57
2023-05-20T04:33:05.108Z,84.93
2023-05-20T04:35:54.985Z,86.09
2023-05-20T04:38:36.148Z,85.61
2023-05-20T04:41:23.020Z,85.90
2023-05-20T04:44:03.941Z,85.56
2023-05-20T04:46:50.945Z,86.64
2023-05-20T04:49:31.136Z,85.80
2023-05-20T04:52:17.975Z,85.33
2023-05-20T04:54:59.083Z,85.68
2023-05-20T04:57:47.965Z,85.59
2023-05-20T05:00:28.079Z,86.43
2023-05-20T05:03:15.011Z,87.75
2023-05-20T05:05:56.024Z,89.68
2023-05-20T05:08:42.889Z,90.59
2023-05-20T05:11:29.976Z,89.78
2023-05-20T05:14:16.938Z,89.02
2023-05-20T05:17:03.959Z,88.77
2023-05-20T05:19:44.328Z,87.58
2023-05-20T05:22:30.987Z,86.90
2023-05-20T05:25:12.246Z,84.67
2023-05-20T05:27:58.870Z,82.89
2023-05-20T05:30:45.903Z,81.80
2023-05-20T05:33:26.117Z,81.45
2023-05-20T05:36:12.976Z,81.17
2023-05-20T05:38:53.083Z,80.94
2023-05-20T05:41:39.909Z,80.63
2023-05-20T05:44:27.937Z,81.02
2023-05-20T05:47:21.890Z,80.69
2023-05-20T05:50:02.374Z,80.30
2023-05-20T05:52:49.892Z,80.41
2023-05-20T05:55:36.903Z,79.98
2023-05-20T05:58:17.769Z,79.93
2023-05-20T06:01:04.954Z,80.38
2023-05-20T06:03:45.099Z,81.18
2023-05-20T06:06:31.874Z,80.46
2023-05-20T06:09:18.923Z,80.35
2023-05-20T06:11:59.298Z,77.87
2023-05-20T06:14:45.854Z,77.80
2023-05-20T06:17:32.898Z,75.51
2023-05-20T06:20:14.041Z,74.46
2023-05-20T06:23:00.838Z,73.11
2023-05-20T06:26:05.996Z,72.10
2023-05-20T06:28:52.848Z,72.72
2023-05-20T06:31:33.096Z,71.98
2023-05-20T06:34:19.904Z,70.45
2023-05-20T06:36:59.986Z,69.00
2023-05-20T06:39:46.867Z,68.20
2023-05-20T06:42:27.944Z,66.15
2023-05-20T06:45:18.804Z,65.89
2023-05-20T06:48:16.855Z,65.67
2023-05-20T06:51:03.841Z,64.52
2023-05-20T06:53:51.824Z,63.57
2023-05-20T06:56:38.973Z,62.61
2023-05-20T06:59:20.847Z,60.77
2023-05-20T07:02:08.036Z,59.67
2023-05-20T07:04:47.785Z,60.16
2023-05-20T07:07:28.177Z,60.59
2023-05-20T07:10:14.845Z,61.02
2023-05-20T07:12:55.264Z,61.47
2023-05-20T07:15:41.862Z,60.82
2023-05-20T07:18:29.797Z,60.89
2023-05-20T07:21:09.933Z,60.14
2023-05-20T07:24:31.735Z,59.28
2023-05-20T07:27:19.002Z,60.00
2023-05-20T07:29:59.196Z,59.73
2023-05-20T07:45:27.838Z,64.45
2023-05-20T07:48:16.012Z,65.07
2023-05-20T07:50:59.215Z,65.32
2023-05-20T07:53:46.885Z,66.10
2023-05-20T07:56:27.064Z,66.95
2023-05-20T07:59:13.818Z,67.72
2023-05-20T08:02:02.887Z,72.18
2023-05-20T08:04:43.331Z,75.31
2023-05-20T08:07:30.845Z,79.58
2023-05-20T08:10:11.919Z,81.12
2023-05-20T08:13:00.770Z,83.18
2023-05-20T08:15:47.818Z,84.29
2023-05-20T08:18:28.099Z,86.78
2023-05-20T08:21:14.833Z,89.90
2023-05-20T08:23:54.911Z,91.25
2023-05-20T08:26:41.805Z,94.16
2023-05-20T08:29:30.793Z,95.88
2023-05-20T08:32:11.596Z,97.02
2023-05-20T08:34:59.790Z,97.22
2023-05-20T08:37:40.161Z,97.25
2023-05-20T08:40:27.857Z,96.14
2023-05-20T08:43:14.817Z,96.09
2023-05-20T08:45:56.067Z,95.80
2023-05-20T08:48:43.831Z,93.52
2023-05-20T08:51:27.936Z,94.93
2023-05-20T08:54:15.834Z,94.75
2023-05-20T08:56:56.031Z,93.74
2023-05-20T08:59:43.798Z,93.68
2023-05-20T09:02:23.875Z,92.62
2023-05-20T09:05:11.851Z,92.33
2023-05-20T09:07:51.925Z,89.97
2023-05-20T09:10:39.778Z,90.17
2023-05-20T09:13:26.835Z,89.20
2023-05-20T09:16:07.346Z,87.83
2023-05-20T09:18:53.783Z,86.21
2023-05-20T09:21:35.891Z,83.29
2023-05-20T09:24:22.734Z,83.18
2023-05-20T09:27:03.230Z,83.13
2023-05-20T09:29:50.749Z,80.65
2023-05-20T09:32:31.480Z,81.09
2023-05-20T09:35:19.764Z,78.39
2023-05-20T09:38:00.378Z,78.17
2023-05-20T09:40:46.792Z,76.99
2023-05-20T09:43:27.405Z,76.75
2023-05-20T09:46:13.737Z,75.92
2023-05-20T09:48:54.796Z,74.78
2023-05-20T09:51:42.713Z,73.11
2023-05-20T09:54:25.687Z,72.18
2023-05-20T09:57:13.723Z,72.03
2023-05-20T10:00:00.737Z,70.18
2023-05-20T10:02:59.858Z,70.28
2023-05-20T10:06:07.532Z,69.23
2023-05-20T10:08:57.747Z,66.86
2023-05-20T10:11:56.727Z,65.15
2023-05-20T10:14:52.650Z,61.40
2023-05-20T10:17:54.872Z,58.33
2023-05-20T10:20:34.739Z,60.99
2023-05-20T10:23:27.919Z,55.65
2023-05-20T10:26:20.736Z,48.17
2023-05-20T10:29:01.170Z,46.96
2023-05-20T10:31:58.729Z,48.71
2023-05-20T10:34:54.659Z,40.39
2023-05-20T10:37:36.795Z,36.58
2023-05-20T10:40:26.670Z,33.61
2023-05-20T10:43:19.044Z,27.17
2023-05-20T10:46:10.485Z,29.85
2023-05-20T10:48:56.997Z,32.95
2023-05-20T10:51:43.654Z,30.20
2023-05-20T10:54:23.760Z,28.24
2023-05-20T10:57:15.696Z,28.00
2023-05-20T10:59:56.898Z,25.82
2023-05-20T11:02:44.753Z,25.41
2023-05-20T11:05:25.823Z,24.19
2023-05-20T11:08:27.769Z,24.52
2023-05-20T11:11:15.644Z,28.22
2023-05-20T11:13:57.490Z,25.97
2023-05-20T11:16:44.786Z,27.03
2023-05-20T11:19:26.733Z,26.93
2023-05-20T11:22:13.645Z,29.12
2023-05-20T11:25:00.679Z,31.71
2023-05-20T11:27:41.481Z,32.06
2023-05-20T11:30:28.643Z,33.73
2023-05-20T11:33:11.310Z,37.73
2023-05-20T11:35:59.590Z,39.36
2023-05-20T11:38:39.706Z,41.36
2023-05-20T11:41:31.682Z,44.10
2023-05-20T11:44:16.763Z,45.92
2023-05-20T11:47:08.608Z,46.13
2023-05-20T11:49:48.737Z,48.20
2023-05-20T11:52:35.585Z,48.80
2023-05-20T11:55:18.711Z,48.92
2023-05-20T11:58:06.577Z,50.13
2023-05-20T12:00:52.804Z,51.77
2023-05-20T12:03:42.740Z,52.16
2023-05-20T12:06:23.676Z,53.27
2023-05-20T12:09:14.598Z,53.82
2023-05-20T12:11:56.706Z,55.22
2023-05-20T12:14:43.692Z,55.39
2023-05-20T12:17:30.615Z,56.06
2023-05-20T12:20:13.191Z,54.66
2023-05-20T12:22:59.592Z,52.88
2023-05-20T12:25:39.968Z,53.85
2023-05-20T12:28:26.755Z,52.59
2023-05-20T12:31:07.750Z,52.35
2023-05-20T12:33:54.616Z,48.49
2023-05-20T12:36:34.936Z,43.06
2023-05-20T12:39:24.605Z,40.75
2023-05-20T12:42:05.099Z,38.85
2023-05-20T12:44:51.551Z,37.74
2023-05-20T12:47:39.597Z,37.39
2023-05-20T12:50:19.729Z,36.42
2023-05-20T12:53:06.577Z,35.88
2023-05-20T12:55:46.759Z,35.06
2023-05-20T12:58:33.508Z,35.31
2023-05-20T13:01:13.690Z,35.35
2023-05-20T13:04:00.527Z,36.29
2023-05-20T13:06:41.624Z,35.54
2023-05-20T13:09:28.556Z,35.68
2023-05-20T13:12:08.742Z,35.92
2023-05-20T13:14:55.544Z,37.18
2023-05-20T13:17:35.729Z,36.72
2023-05-20T13:20:23.512Z,38.31
2023-05-20T13:23:10.544Z,37.65
2023-05-20T13:25:57.477Z,37.82
2023-05-20T13:28:37.662Z,38.56
2023-05-20T13:31:24.578Z,37.71
2023-05-20T13:34:04.740Z,38.02
2023-05-20T13:36:52.537Z,38.10
2023-05-20T13:39:39.552Z,39.14
2023-05-20T13:42:26.556Z,39.57
2023-05-20T13:45:13.641Z,40.40
2023-05-20T13:47:53.597Z,41.56
2023-05-20T13:50:43.401Z,42.63
2023-05-20T13:53:23.892Z,43.47
2023-05-20T13:56:11.550Z,46.11
2023-05-20T13:58:58.445Z,47.33
2023-05-20T14:01:40.598Z,47.17
2023-05-20T14:04:28.542Z,47.70
2023-05-20T14:07:09.947Z,47.19
2023-05-20T14:09:56.694Z,46.58
2023-05-20T14:12:37.319Z,46.06
2023-05-20T14:15:25.540Z,46.08
2023-05-20T14:18:12.635Z,44.19
2023-05-20T14:20:52.733Z,43.91
2023-05-20T14:23:39.461Z,43.55
2023-05-20T14:26:19.591Z,43.34
2023-05-20T14:29:06.491Z,43.52
2023-05-20T14:31:46.616Z,43.34
2023-05-20T14:34:33.487Z,44.33
2023-05-20T14:37:13.785Z,44.43
2023-05-20T14:40:01.434Z,45.41
2023-05-20T14:42:48.467Z,46.53
2023-05-20T14:45:35.577Z,46.61
2023-05-20T14:48:15.493Z,47.24
2023-05-20T14:50:56.012Z,46.77
2023-05-20T14:53:42.446Z,47.22
2023-05-20T14:56:29.473Z,47.20
2023-05-20T14:59:09.784Z,47.00
2023-05-20T15:01:56.482Z,47.19
2023-05-20T15:04:43.401Z,47.43
2023-05-20T15:07:23.826Z,47.84
2023-05-20T15:10:10.408Z,47.78
2023-05-20T15:12:51.385Z,47.87
2023-05-20T15:15:39.379Z,47.69
2023-05-20T15:18:29.539Z,47.72
2023-05-20T15:21:09.705Z,47.32
2023-05-20T15:23:56.476Z,46.52
2023-05-20T15:26:46.361Z,46.56
2023-05-20T15:29:26.876Z,46.17
2023-05-20T15:32:13.562Z,46.35
2023-05-20T15:34:55.744Z,46.40
2023-05-20T15:37:42.339Z,45.94
2023-05-20T15:40:22.833Z,46.90
2023-05-20T15:43:09.529Z,47.13
2023-05-20T15:45:56.586Z,47.23
2023-05-20T15:48:36.518Z,46.62
2023-05-20T15:51:18.014Z,46.43
2023-05-20T15:54:04.360Z,46.14
2023-05-20T15:56:51.364Z,46.28
2023-05-20T15:59:38.400Z,46.37
2023-05-20T16:02:18.842Z,46.26
2023-05-20T16:05:05.606Z,45.91
2023-05-20T16:07:46.802Z,45.50
2023-05-20T16:10:38.514Z,45.35
2023-05-20T16:13:18.733Z,44.89
2023-05-20T16:16:05.471Z,43.65
2023-05-20T16:18:46.305Z,43.59
2023-05-20T16:21:36.523Z,43.46
2023-05-20T16:24:17.136Z,43.14
2023-05-20T16:27:04.369Z,42.53
2023-05-20T16:29:45.672Z,42.21
2023-05-20T16:32:32.418Z,42.32
2023-05-20T16:35:19.342Z,42.11
2023-05-20T16:37:59.521Z,41.83
2023-05-20T16:40:46.300Z,41.62
2023-05-20T16:43:33.291Z,41.34
2023-05-20T16:46:20.770Z,41.51
2023-05-20T16:49:00.344Z,41.19
2023-05-20T16:51:40.725Z,40.72
2023-05-20T16:54:28.346Z,40.33
2023-05-20T16:57:08.893Z,40.55
2023-05-20T16:59:55.340Z,40.63
2023-05-20T17:02:42.349Z,40.34
2023-05-20T17:05:22.578Z,40.44
2023-05-20T17:08:09.355Z,40.42
2023-05-20T17:10:56.318Z,40.44
2023-05-20T17:13:36.690Z,40.46
2023-05-20T17:16:23.295Z,40.38
2023-05-20T17:19:10.286Z,40.64
2023-05-20T17:21:50.536Z,40.89
2023-05-20T17:24:37.271Z,40.59
2023-05-20T17:27:24.283Z,40.42
2023-05-20T17:30:05.692Z,40.65
2023-05-20T17:32:54.091Z,40.60
2023-05-20T17:35:35.638Z,40.62
2023-05-20T17:38:22.255Z,40.61
2023-05-20T17:41:02.583Z,40.49
2023-05-20T17:43:49.311Z,40.57
2023-05-20T17:46:36.524Z,40.57
2023-05-20T17:49:16.234Z,40.49
2023-05-20T17:52:03.312Z,40.49
2023-05-20T17:54:43.234Z,40.73
2023-05-20T17:57:23.581Z,40.75
2023-05-20T18:00:10.214Z,40.93
2023-05-20T18:03:00.629Z,40.82
2023-05-20T18:05:41.256Z,40.99
2023-05-20T18:08:28.629Z,41.19
2023-05-20T18:11:08.168Z,41.60
2023-05-20T18:13:48.593Z,41.55
2023-05-20T18:16:35.198Z,41.80
2023-05-20T18:19:15.803Z,42.08
2023-05-20T18:22:02.184Z,42.19
2023-05-20T18:24:42.615Z,42.21
2023-05-20T18:27:29.168Z,42.35
2023-05-20T18:30:17.209Z,42.54
2023-05-20T18:32:57.553Z,42.58
2023-05-20T18:35:44.161Z,42.66
2023-05-20T18:38:24.269Z,42.68
2023-05-20T18:41:12.216Z,42.84
2023-05-20T18:43:52.274Z,42.92
2023-05-20T18:46:40.230Z,43.20
2023-05-20T18:49:20.346Z,43.18
2023-05-20T18:52:07.220Z,43.10
2023-05-20T18:54:47.455Z,43.14
2023-05-20T18:57:34.176Z,43.46
2023-05-20T19:00:15.713Z,43.47
2023-05-20T19:03:04.239Z,43.39
2023-05-20T19:05:51.252Z,43.65
2023-05-20T19:08:39.147Z,43.72
2023-05-20T19:11:26.158Z,43.79
2023-05-20T19:14:07.573Z,43.97
2023-05-20T19:16:55.207Z,44.17
2023-05-20T19:19:35.695Z,44.38
2023-05-20T19:22:22.147Z,44.76
2023-05-20T19:25:02.575Z,44.91
2023-05-20T19:27:49.167Z,45.34
2023-05-20T19:46:54.292Z,48.70
2023-05-20T19:49:41.346Z,48.70
2023-05-20T19:52:21.375Z,48.66
2023-05-20T19:55:08.294Z,48.69
2023-05-20T19:57:53.297Z,48.78
2023-05-20T20:00:40.291Z,48.85
2023-05-20T20:03:20.629Z,49.17
2023-05-20T20:06:07.316Z,49.20
2023-05-20T20:08:47.400Z,49.33
2023-05-20T20:11:34.302Z,49.46
2023-05-20T20:14:14.389Z,49.75
2023-05-20T20:17:01.287Z,49.90
2023-05-20T20:19:49.255Z,49.95
2023-05-20T20:22:36.289Z,50.25
2023-05-20T20:25:16.477Z,50.14
2023-05-20T20:28:03.306Z,50.33
2023-05-20T20:30:44.466Z,50.27
2023-05-20T20:33:31.234Z,50.41
2023-05-20T20:36:11.428Z,50.78
2023-05-20T20:38:58.299Z,50.69
2023-05-20T20:41:46.282Z,50.76
2023-05-20T20:44:33.297Z,50.80
2023-05-20T20:47:14.858Z,50.67
2023-05-20T20:50:03.302Z,50.75
2023-05-20T20:52:43.458Z,50.61
2023-05-20T20:55:30.299Z,50.79
2023-05-20T20:58:10.608Z,50.63
2023-05-20T21:00:57.306Z,50.75
2023-05-20T21:03:47.281Z,51.01
2023-05-20T21:06:27.611Z,51.12
2023-05-20T21:09:14.209Z,51.14
2023-05-20T21:12:03.172Z,51.46
2023-05-20T21:14:44.449Z,51.70
2023-05-20T21:17:31.267Z,51.67
2023-05-20T21:20:12.382Z,51.71
2023-05-20T21:22:59.214Z,51.96
2023-05-20T21:25:46.178Z,51.85
2023-05-20T21:28:33.227Z,52.22
2023-05-20T21:31:13.453Z,52.30
2023-05-20T21:34:00.267Z,52.40
2023-05-20T21:36:40.336Z,52.90
2023-05-20T21:39:27.175Z,53.16
2023-05-20T21:42:14.257Z,53.21
2023-05-20T21:45:01.237Z,53.01
2023-05-20T21:47:48.142Z,53.04
2023-05-20T21:50:35.134Z,53.44
2023-05-20T21:53:15.342Z,53.15
2023-05-20T21:56:02.165Z,53.27
2023-05-20T21:58:42.311Z,53.26
2023-05-20T22:01:29.240Z,53.29
2023-05-20T22:04:16.217Z,53.69
2023-05-20T22:07:03.157Z,54.13
2023-05-20T22:09:50.137Z,54.27
2023-05-20T22:12:38.237Z,54.43
2023-05-20T22:15:18.268Z,54.45
2023-05-20T22:18:07.616Z,54.38
2023-05-20T22:20:49.219Z,54.34
2023-05-20T22:23:36.187Z,54.39
2023-05-20T22:26:19.053Z,54.74
2023-05-20T22:29:06.169Z,55.02
2023-05-20T22:31:46.300Z,55.44
2023-05-20T22:34:33.211Z,55.64
2023-05-20T22:37:13.259Z,55.37
2023-05-20T22:40:00.136Z,55.65
2023-05-20T22:42:47.057Z,55.56
2023-05-20T22:45:34.342Z,55.98
2023-05-20T22:48:14.407Z,55.49
2023-05-20T22:51:03.150Z,55.66
2023-05-20T22:53:43.255Z,56.28
2023-05-20T22:56:30.224Z,55.77
2023-05-20T22:59:17.130Z,56.06
2023-05-20T23:01:57.617Z,56.32
2023-05-20T23:04:44.126Z,56.49
2023-05-20T23:07:24.629Z,56.63
2023-05-20T23:10:11.113Z,56.39
2023-05-20T23:12:52.262Z,56.79
2023-05-20T23:15:39.055Z,57.30
2023-05-20T23:18:26.073Z,57.13
2023-05-20T23:21:13.098Z,57.41
2023-05-20T23:24:00.096Z,57.69
2023-05-20T23:26:47.070Z,57.42
2023-05-20T23:29:27.592Z,57.67
2023-05-20T23:32:14.047Z,57.67
2023-05-20T23:34:55.417Z,57.52
2023-05-20T23:37:42.209Z,57.42
2023-05-20T23:40:29.101Z,57.25
2023-05-20T23:43:16.139Z,57.14
2023-05-20T23:46:10.128Z,57.01
2023-05-20T23:48:50.553Z,57.05
2023-05-20T23:51:37.060Z,56.95
2023-05-20T23:54:25.039Z,56.78
2023-05-20T23:57:05.323Z,56.49
2023-05-20T23:59:52.086Z,56.19
